sensor_id;sensor_type;location;lat;lon;timestamp;P1;durP1;ratioP1;P2;durP2;ratioP2
15958;SDS011;8078;47.822;9.402;2024-03-07T00:00:11;653.67;;;33.77;;
15958;SDS011;8078;47.822;9.402;2024-03-07T00:02:45;562.93;;;27.47;;
15958;SDS011;8078;47.822;9.402;2024-03-07T00:05:14;456.73;;;23.03;;
15958;SDS011;8078;47.822;9.402;2024-03-07T00:07:41;438.60;;;21.97;;
15958;SDS011;8078;47.822;9.402;2024-03-07T00:10:07;453.83;;;23.80;;
15958;SDS011;8078;47.822;9.402;2024-03-07T00:12:36;449.30;;;22.27;;
15958;SDS011;8078;47.822;9.402;2024-03-07T00:15:05;600.63;;;26.70;;
15958;SDS011;8078;47.822;9.402;2024-03-07T00:17:32;606.23;;;29.47;;
15958;SDS011;8078;47.822;9.402;2024-03-07T00:19:57;478.57;;;22.63;;
15958;SDS011;8078;47.822;9.402;2024-03-07T00:22:23;523.17;;;26.87;;
15958;SDS011;8078;47.822;9.402;2024-03-07T00:24:51;479.87;;;23.10;;
15958;SDS011;8078;47.822;9.402;2024-03-07T00:27:17;356.67;;;19.07;;
15958;SDS011;8078;47.822;9.402;2024-03-07T00:29:44;19.57;;;5.77;;
15958;SDS011;8078;47.822;9.402;2024-03-07T00:32:17;11.30;;;5.50;;
15958;SDS011;8078;47.822;9.402;2024-03-07T00:34:47;20.67;;;6.00;;
15958;SDS011;8078;47.822;9.402;2024-03-07T00:37:14;144.20;;;14.67;;
15958;SDS011;8078;47.822;9.402;2024-03-07T00:39:40;92.73;;;9.33;;
15958;SDS011;8078;47.822;9.402;2024-03-07T00:42:05;124.13;;;9.87;;
15958;SDS011;8078;47.822;9.402;2024-03-07T00:44:31;253.63;;;11.60;;
15958;SDS011;8078;47.822;9.402;2024-03-07T00:46:57;256.47;;;13.37;;
15958;SDS011;8078;47.822;9.402;2024-03-07T00:49:23;278.43;;;14.90;;
15958;SDS011;8078;47.822;9.402;2024-03-07T00:51:48;277.67;;;14.20;;
15958;SDS011;8078;47.822;9.402;2024-03-07T00:54:14;203.67;;;15.50;;
15958;SDS011;8078;47.822;9.402;2024-03-07T00:56:41;164.97;;;11.13;;
15958;SDS011;8078;47.822;9.402;2024-03-07T00:59:06;218.07;;;11.27;;
15958;SDS011;8078;47.822;9.402;2024-03-07T01:01:32;148.13;;;8.80;;
15958;SDS011;8078;47.822;9.402;2024-03-07T01:04:03;481.60;;;26.43;;
15958;SDS011;8078;47.822;9.402;2024-03-07T01:06:28;578.67;;;27.80;;
15958;SDS011;8078;47.822;9.402;2024-03-07T01:08:54;629.60;;;29.53;;
15958;SDS011;8078;47.822;9.402;2024-03-07T01:11:20;558.97;;;30.17;;
15958;SDS011;8078;47.822;9.402;2024-03-07T01:13:45;434.97;;;19.03;;
15958;SDS011;8078;47.822;9.402;2024-03-07T01:16:11;365.07;;;14.23;;
15958;SDS011;8078;47.822;9.402;2024-03-07T01:18:37;339.93;;;13.53;;
15958;SDS011;8078;47.822;9.402;2024-03-07T01:21:03;86.50;;;8.60;;
15958;SDS011;8078;47.822;9.402;2024-03-07T01:23:30;152.97;;;9.87;;
15958;SDS011;8078;47.822;9.402;2024-03-07T01:25:56;310.33;;;12.77;;
15958;SDS011;8078;47.822;9.402;2024-03-07T01:28:23;375.80;;;15.33;;
15958;SDS011;8078;47.822;9.402;2024-03-07T01:30:55;41.57;;;5.00;;
15958;SDS011;8078;47.822;9.402;2024-03-07T01:33:21;249.60;;;11.47;;
15958;SDS011;8078;47.822;9.402;2024-03-07T01:35:47;21.43;;;4.37;;
15958;SDS011;8078;47.822;9.402;2024-03-07T01:38:14;128.60;;;7.40;;
15958;SDS011;8078;47.822;9.402;2024-03-07T01:40:40;121.40;;;8.03;;
15958;SDS011;8078;47.822;9.402;2024-03-07T01:43:07;87.00;;;8.60;;
15958;SDS011;8078;47.822;9.402;2024-03-07T01:45:33;268.57;;;11.30;;
15958;SDS011;8078;47.822;9.402;2024-03-07T01:47:58;17.23;;;3.97;;
15958;SDS011;8078;47.822;9.402;2024-03-07T01:50:24;137.70;;;8.30;;
15958;SDS011;8078;47.822;9.402;2024-03-07T01:52:50;26.43;;;5.03;;
15958;SDS011;8078;47.822;9.402;2024-03-07T01:55:16;37.10;;;5.50;;
15958;SDS011;8078;47.822;9.402;2024-03-07T01:57:43;29.67;;;5.93;;
15958;SDS011;8078;47.822;9.402;2024-03-07T02:00:10;20.00;;;4.83;;
15958;SDS011;8078;47.822;9.402;2024-03-07T02:02:36;96.73;;;7.73;;
15958;SDS011;8078;47.822;9.402;2024-03-07T02:05:02;190.63;;;9.90;;
15958;SDS011;8078;47.822;9.402;2024-03-07T02:07:28;134.50;;;7.30;;
15958;SDS011;8078;47.822;9.402;2024-03-07T02:10:00;81.67;;;7.07;;
15958;SDS011;8078;47.822;9.402;2024-03-07T02:12:30;290.20;;;12.87;;
15958;SDS011;8078;47.822;9.402;2024-03-07T02:14:56;305.27;;;14.47;;
15958;SDS011;8078;47.822;9.402;2024-03-07T02:17:24;240.13;;;10.93;;
15958;SDS011;8078;47.822;9.402;2024-03-07T02:19:51;264.03;;;15.57;;
15958;SDS011;8078;47.822;9.402;2024-03-07T02:22:17;187.13;;;9.90;;
15958;SDS011;8078;47.822;9.402;2024-03-07T02:24:43;242.77;;;11.90;;
15958;SDS011;8078;47.822;9.402;2024-03-07T02:27:10;213.13;;;11.30;;
15958;SDS011;8078;47.822;9.402;2024-03-07T02:29:36;292.60;;;13.27;;
15958;SDS011;8078;47.822;9.402;2024-03-07T02:32:02;387.47;;;16.33;;
15958;SDS011;8078;47.822;9.402;2024-03-07T02:34:28;327.63;;;15.57;;
15958;SDS011;8078;47.822;9.402;2024-03-07T02:36:55;329.17;;;14.47;;
15958;SDS011;8078;47.822;9.402;2024-03-07T02:39:22;417.83;;;22.03;;
15958;SDS011;8078;47.822;9.402;2024-03-07T02:41:47;429.00;;;18.00;;
15958;SDS011;8078;47.822;9.402;2024-03-07T02:44:13;415.67;;;17.93;;
15958;SDS011;8078;47.822;9.402;2024-03-07T02:46:39;539.43;;;23.67;;
15958;SDS011;8078;47.822;9.402;2024-03-07T02:49:05;496.40;;;20.23;;
15958;SDS011;8078;47.822;9.402;2024-03-07T02:51:31;231.30;;;11.53;;
15958;SDS011;8078;47.822;9.402;2024-03-07T02:53:56;430.83;;;18.03;;
15958;SDS011;8078;47.822;9.402;2024-03-07T02:56:22;519.90;;;21.47;;
15958;SDS011;8078;47.822;9.402;2024-03-07T02:58:48;331.83;;;15.40;;
15958;SDS011;8078;47.822;9.402;2024-03-07T03:01:14;443.83;;;18.13;;
15958;SDS011;8078;47.822;9.402;2024-03-07T03:03:39;529.43;;;20.50;;
15958;SDS011;8078;47.822;9.402;2024-03-07T03:06:07;472.87;;;19.63;;
15958;SDS011;8078;47.822;9.402;2024-03-07T03:08:33;433.07;;;19.20;;
15958;SDS011;8078;47.822;9.402;2024-03-07T03:10:59;358.87;;;18.00;;
15958;SDS011;8078;47.822;9.402;2024-03-07T03:13:25;378.90;;;16.63;;
15958;SDS011;8078;47.822;9.402;2024-03-07T03:15:54;341.03;;;15.20;;
15958;SDS011;8078;47.822;9.402;2024-03-07T03:18:23;350.03;;;16.27;;
15958;SDS011;8078;47.822;9.402;2024-03-07T03:20:49;341.87;;;18.07;;
15958;SDS011;8078;47.822;9.402;2024-03-07T03:23:15;467.73;;;22.83;;
15958;SDS011;8078;47.822;9.402;2024-03-07T03:25:41;394.10;;;18.20;;
15958;SDS011;8078;47.822;9.402;2024-03-07T03:28:07;554.80;;;23.63;;
15958;SDS011;8078;47.822;9.402;2024-03-07T03:30:38;404.97;;;19.77;;
15958;SDS011;8078;47.822;9.402;2024-03-07T03:33:04;393.93;;;21.20;;
15958;SDS011;8078;47.822;9.402;2024-03-07T03:35:33;325.17;;;17.20;;
15958;SDS011;8078;47.822;9.402;2024-03-07T03:37:59;350.43;;;19.43;;
15958;SDS011;8078;47.822;9.402;2024-03-07T03:40:26;487.80;;;23.87;;
15958;SDS011;8078;47.822;9.402;2024-03-07T03:42:51;499.13;;;24.73;;
15958;SDS011;8078;47.822;9.402;2024-03-07T03:45:17;474.57;;;20.87;;
15958;SDS011;8078;47.822;9.402;2024-03-07T03:47:43;558.43;;;27.53;;
15958;SDS011;8078;47.822;9.402;2024-03-07T03:50:10;563.03;;;26.33;;
15958;SDS011;8078;47.822;9.402;2024-03-07T03:52:37;568.70;;;27.03;;
15958;SDS011;8078;47.822;9.402;2024-03-07T03:55:06;496.73;;;23.77;;
15958;SDS011;8078;47.822;9.402;2024-03-07T03:57:35;454.77;;;23.60;;
15958;SDS011;8078;47.822;9.402;2024-03-07T04:00:04;538.37;;;23.43;;
15958;SDS011;8078;47.822;9.402;2024-03-07T04:02:38;526.07;;;24.37;;
15958;SDS011;8078;47.822;9.402;2024-03-07T04:05:08;509.57;;;25.40;;
15958;SDS011;8078;47.822;9.402;2024-03-07T04:07:35;488.30;;;26.40;;
15958;SDS011;8078;47.822;9.402;2024-03-07T04:10:00;429.87;;;23.07;;
15958;SDS011;8078;47.822;9.402;2024-03-07T04:12:28;538.53;;;29.03;;
15958;SDS011;8078;47.822;9.402;2024-03-07T04:14:53;587.53;;;30.23;;
15958;SDS011;8078;47.822;9.402;2024-03-07T04:17:22;656.03;;;35.00;;
15958;SDS011;8078;47.822;9.402;2024-03-07T04:19:48;626.03;;;37.77;;
15958;SDS011;8078;47.822;9.402;2024-03-07T04:22:13;552.57;;;31.53;;
15958;SDS011;8078;47.822;9.402;2024-03-07T04:24:39;654.80;;;35.37;;
15958;SDS011;8078;47.822;9.402;2024-03-07T04:27:05;599.87;;;34.50;;
15958;SDS011;8078;47.822;9.402;2024-03-07T04:29:32;691.57;;;44.03;;
15958;SDS011;8078;47.822;9.402;2024-03-07T04:31:58;717.57;;;41.27;;
15958;SDS011;8078;47.822;9.402;2024-03-07T04:34:26;797.07;;;50.23;;
15958;SDS011;8078;47.822;9.402;2024-03-07T04:36:53;811.53;;;44.87;;
15958;SDS011;8078;47.822;9.402;2024-03-07T04:39:18;736.83;;;44.53;;
15958;SDS011;8078;47.822;9.402;2024-03-07T04:41:57;865.23;;;47.67;;
15958;SDS011;8078;47.822;9.402;2024-03-07T04:44:28;883.40;;;50.93;;
15958;SDS011;8078;47.822;9.402;2024-03-07T04:46:53;688.87;;;40.33;;
15958;SDS011;8078;47.822;9.402;2024-03-07T04:49:22;712.07;;;44.20;;
15958;SDS011;8078;47.822;9.402;2024-03-07T04:51:51;941.87;;;58.00;;
15958;SDS011;8078;47.822;9.402;2024-03-07T04:54:20;851.27;;;49.00;;
15958;SDS011;8078;47.822;9.402;2024-03-07T04:56:47;873.67;;;55.87;;
15958;SDS011;8078;47.822;9.402;2024-03-07T04:59:14;830.83;;;46.70;;
15958;SDS011;8078;47.822;9.402;2024-03-07T05:01:41;775.83;;;45.57;;
15958;SDS011;8078;47.822;9.402;2024-03-07T05:04:07;745.03;;;42.43;;
15958;SDS011;8078;47.822;9.402;2024-03-07T05:06:33;716.77;;;43.00;;
15958;SDS011;8078;47.822;9.402;2024-03-07T05:09:00;775.57;;;43.73;;
15958;SDS011;8078;47.822;9.402;2024-03-07T05:11:29;869.13;;;56.47;;
15958;SDS011;8078;47.822;9.402;2024-03-07T05:13:56;758.43;;;48.60;;
15958;SDS011;8078;47.822;9.402;2024-03-07T05:16:23;857.60;;;51.50;;
15958;SDS011;8078;47.822;9.402;2024-03-07T05:18:49;834.83;;;51.87;;
15958;SDS011;8078;47.822;9.402;2024-03-07T05:21:15;750.37;;;45.17;;
15958;SDS011;8078;47.822;9.402;2024-03-07T05:24:02;760.60;;;41.83;;
15958;SDS011;8078;47.822;9.402;2024-03-07T05:26:29;826.63;;;47.03;;
15958;SDS011;8078;47.822;9.402;2024-03-07T05:29:00;1047.03;;;62.70;;
15958;SDS011;8078;47.822;9.402;2024-03-07T05:31:29;919.37;;;48.37;;
15958;SDS011;8078;47.822;9.402;2024-03-07T05:33:59;884.43;;;44.33;;
15958;SDS011;8078;47.822;9.402;2024-03-07T05:36:25;1210.87;;;62.07;;
15958;SDS011;8078;47.822;9.402;2024-03-07T05:38:51;1159.43;;;61.77;;
15958;SDS011;8078;47.822;9.402;2024-03-07T05:41:17;1226.33;;;78.10;;
15958;SDS011;8078;47.822;9.402;2024-03-07T05:43:42;1010.73;;;53.07;;
15958;SDS011;8078;47.822;9.402;2024-03-07T05:46:09;736.97;;;41.53;;
15958;SDS011;8078;47.822;9.402;2024-03-07T05:48:36;812.87;;;49.83;;
15958;SDS011;8078;47.822;9.402;2024-03-07T05:51:01;800.67;;;48.53;;
15958;SDS011;8078;47.822;9.402;2024-03-07T05:53:27;757.80;;;44.67;;
15958;SDS011;8078;47.822;9.402;2024-03-07T05:55:53;805.93;;;41.63;;
15958;SDS011;8078;47.822;9.402;2024-03-07T05:58:19;828.70;;;49.03;;
15958;SDS011;8078;47.822;9.402;2024-03-07T06:00:48;1018.63;;;51.07;;
15958;SDS011;8078;47.822;9.402;2024-03-07T06:03:17;953.60;;;60.73;;
15958;SDS011;8078;47.822;9.402;2024-03-07T06:05:46;887.57;;;55.73;;
15958;SDS011;8078;47.822;9.402;2024-03-07T06:08:14;813.60;;;45.73;;
15958;SDS011;8078;47.822;9.402;2024-03-07T06:10:46;897.63;;;52.93;;
15958;SDS011;8078;47.822;9.402;2024-03-07T06:13:13;844.90;;;52.90;;
15958;SDS011;8078;47.822;9.402;2024-03-07T06:15:42;803.20;;;57.93;;
15958;SDS011;8078;47.822;9.402;2024-03-07T06:18:08;870.90;;;50.30;;
15958;SDS011;8078;47.822;9.402;2024-03-07T06:20:35;775.53;;;45.63;;
15958;SDS011;8078;47.822;9.402;2024-03-07T06:23:02;867.33;;;51.83;;
15958;SDS011;8078;47.822;9.402;2024-03-07T06:25:31;796.50;;;45.20;;
15958;SDS011;8078;47.822;9.402;2024-03-07T06:28:15;880.63;;;50.40;;
15958;SDS011;8078;47.822;9.402;2024-03-07T06:30:42;862.00;;;53.50;;
15958;SDS011;8078;47.822;9.402;2024-03-07T06:33:11;1063.27;;;65.47;;
15958;SDS011;8078;47.822;9.402;2024-03-07T06:35:37;1132.47;;;65.17;;
15958;SDS011;8078;47.822;9.402;2024-03-07T06:38:04;966.23;;;64.13;;
15958;SDS011;8078;47.822;9.402;2024-03-07T06:40:37;1096.47;;;74.33;;
15958;SDS011;8078;47.822;9.402;2024-03-07T06:43:07;976.63;;;64.07;;
15958;SDS011;8078;47.822;9.402;2024-03-07T06:45:38;1039.70;;;65.80;;
15958;SDS011;8078;47.822;9.402;2024-03-07T06:48:05;934.20;;;65.73;;
15958;SDS011;8078;47.822;9.402;2024-03-07T06:50:34;715.83;;;54.33;;
15958;SDS011;8078;47.822;9.402;2024-03-07T06:53:04;808.43;;;59.30;;
15958;SDS011;8078;47.822;9.402;2024-03-07T06:55:31;912.87;;;71.07;;
15958;SDS011;8078;47.822;9.402;2024-03-07T06:58:01;1094.60;;;74.77;;
15958;SDS011;8078;47.822;9.402;2024-03-07T07:00:30;921.60;;;72.70;;
15958;SDS011;8078;47.822;9.402;2024-03-07T07:03:00;608.47;;;48.17;;
15958;SDS011;8078;47.822;9.402;2024-03-07T07:05:28;922.03;;;70.93;;
15958;SDS011;8078;47.822;9.402;2024-03-07T07:07:55;872.97;;;65.43;;
15958;SDS011;8078;47.822;9.402;2024-03-07T07:10:20;740.63;;;57.60;;
15958;SDS011;8078;47.822;9.402;2024-03-07T07:12:48;273.37;;;35.10;;
15958;SDS011;8078;47.822;9.402;2024-03-07T07:15:15;302.90;;;37.43;;
15958;SDS011;8078;47.822;9.402;2024-03-07T07:17:43;297.87;;;36.00;;
15958;SDS011;8078;47.822;9.402;2024-03-07T07:20:12;432.97;;;42.67;;
15958;SDS011;8078;47.822;9.402;2024-03-07T07:22:41;125.93;;;30.40;;
15958;SDS011;8078;47.822;9.402;2024-03-07T07:25:08;104.63;;;30.87;;
15958;SDS011;8078;47.822;9.402;2024-03-07T07:27:40;122.30;;;30.73;;
15958;SDS011;8078;47.822;9.402;2024-03-07T07:30:07;113.43;;;28.27;;
15958;SDS011;8078;47.822;9.402;2024-03-07T07:32:33;86.33;;;27.10;;
15958;SDS011;8078;47.822;9.402;2024-03-07T07:34:58;87.27;;;28.13;;
15958;SDS011;8078;47.822;9.402;2024-03-07T07:37:24;79.33;;;26.23;;
15958;SDS011;8078;47.822;9.402;2024-03-07T07:39:49;106.60;;;30.43;;
15958;SDS011;8078;47.822;9.402;2024-03-07T07:42:16;109.97;;;30.60;;
15958;SDS011;8078;47.822;9.402;2024-03-07T07:44:41;316.20;;;36.57;;
15958;SDS011;8078;47.822;9.402;2024-03-07T07:47:08;99.67;;;28.53;;
15958;SDS011;8078;47.822;9.402;2024-03-07T07:49:35;88.97;;;28.53;;
15958;SDS011;8078;47.822;9.402;2024-03-07T07:52:03;95.03;;;29.03;;
15958;SDS011;8078;47.822;9.402;2024-03-07T07:54:29;109.47;;;31.23;;
15958;SDS011;8078;47.822;9.402;2024-03-07T07:56:55;134.90;;;30.47;;
15958;SDS011;8078;47.822;9.402;2024-03-07T07:59:20;108.27;;;28.87;;
15958;SDS011;8078;47.822;9.402;2024-03-07T08:01:46;95.13;;;28.90;;
15958;SDS011;8078;47.822;9.402;2024-03-07T08:04:11;106.33;;;29.20;;
15958;SDS011;8078;47.822;9.402;2024-03-07T08:06:37;323.80;;;35.63;;
15958;SDS011;8078;47.822;9.402;2024-03-07T08:09:03;174.13;;;29.87;;
15958;SDS011;8078;47.822;9.402;2024-03-07T08:11:32;275.37;;;34.97;;
15958;SDS011;8078;47.822;9.402;2024-03-07T08:13:57;86.83;;;26.13;;
15958;SDS011;8078;47.822;9.402;2024-03-07T08:16:23;95.27;;;26.77;;
15958;SDS011;8078;47.822;9.402;2024-03-07T08:18:49;89.00;;;26.13;;
15958;SDS011;8078;47.822;9.402;2024-03-07T08:21:14;85.50;;;25.83;;
15958;SDS011;8078;47.822;9.402;2024-03-07T08:23:40;86.70;;;27.50;;
15958;SDS011;8078;47.822;9.402;2024-03-07T08:26:06;88.57;;;27.73;;
15958;SDS011;8078;47.822;9.402;2024-03-07T08:28:32;96.33;;;27.13;;
15958;SDS011;8078;47.822;9.402;2024-03-07T08:30:57;119.00;;;29.10;;
15958;SDS011;8078;47.822;9.402;2024-03-07T08:33:24;286.97;;;33.20;;
15958;SDS011;8078;47.822;9.402;2024-03-07T08:35:50;356.43;;;36.77;;
15958;SDS011;8078;47.822;9.402;2024-03-07T08:38:18;107.97;;;28.07;;
15958;SDS011;8078;47.822;9.402;2024-03-07T08:40:43;100.93;;;26.67;;
15958;SDS011;8078;47.822;9.402;2024-03-07T08:43:09;87.43;;;25.70;;
15958;SDS011;8078;47.822;9.402;2024-03-07T08:45:35;83.20;;;25.87;;
15958;SDS011;8078;47.822;9.402;2024-03-07T08:48:01;118.77;;;29.27;;
15958;SDS011;8078;47.822;9.402;2024-03-07T08:50:29;319.20;;;33.53;;
15958;SDS011;8078;47.822;9.402;2024-03-07T08:52:55;452.60;;;41.17;;
15958;SDS011;8078;47.822;9.402;2024-03-07T08:55:22;375.03;;;35.43;;
15958;SDS011;8078;47.822;9.402;2024-03-07T08:57:49;141.03;;;27.10;;
15958;SDS011;8078;47.822;9.402;2024-03-07T09:00:16;230.90;;;28.83;;
15958;SDS011;8078;47.822;9.402;2024-03-07T09:02:49;320.97;;;34.50;;
15958;SDS011;8078;47.822;9.402;2024-03-07T09:05:17;219.43;;;29.07;;
15958;SDS011;8078;47.822;9.402;2024-03-07T09:07:43;68.30;;;24.50;;
15958;SDS011;8078;47.822;9.402;2024-03-07T09:10:11;76.07;;;24.03;;
15958;SDS011;8078;47.822;9.402;2024-03-07T09:12:37;75.80;;;24.80;;
15958;SDS011;8078;47.822;9.402;2024-03-07T09:15:03;76.20;;;25.07;;
15958;SDS011;8078;47.822;9.402;2024-03-07T09:17:29;78.20;;;24.97;;
15958;SDS011;8078;47.822;9.402;2024-03-07T09:19:55;84.40;;;26.17;;
15958;SDS011;8078;47.822;9.402;2024-03-07T09:22:20;76.37;;;25.60;;
15958;SDS011;8078;47.822;9.402;2024-03-07T09:24:46;84.53;;;25.90;;
15958;SDS011;8078;47.822;9.402;2024-03-07T09:27:11;96.80;;;26.00;;
15958;SDS011;8078;47.822;9.402;2024-03-07T09:29:40;74.30;;;24.93;;
15958;SDS011;8078;47.822;9.402;2024-03-07T09:32:06;74.53;;;24.10;;
15958;SDS011;8078;47.822;9.402;2024-03-07T09:34:34;124.30;;;26.30;;
15958;SDS011;8078;47.822;9.402;2024-03-07T09:37:00;85.50;;;24.97;;
15958;SDS011;8078;47.822;9.402;2024-03-07T09:39:32;107.53;;;23.77;;
15958;SDS011;8078;47.822;9.402;2024-03-07T09:41:59;102.37;;;23.23;;
15958;SDS011;8078;47.822;9.402;2024-03-07T09:44:26;69.50;;;23.07;;
15958;SDS011;8078;47.822;9.402;2024-03-07T09:46:54;62.23;;;23.60;;
15958;SDS011;8078;47.822;9.402;2024-03-07T09:49:20;59.77;;;22.17;;
15958;SDS011;8078;47.822;9.402;2024-03-07T09:51:50;60.27;;;22.00;;
15958;SDS011;8078;47.822;9.402;2024-03-07T09:54:20;55.03;;;22.87;;
15958;SDS011;8078;47.822;9.402;2024-03-07T09:56:48;63.10;;;22.10;;
15958;SDS011;8078;47.822;9.402;2024-03-07T09:59:14;66.20;;;23.80;;
15958;SDS011;8078;47.822;9.402;2024-03-07T10:01:45;55.43;;;23.27;;
15958;SDS011;8078;47.822;9.402;2024-03-07T10:04:12;53.23;;;23.87;;
15958;SDS011;8078;47.822;9.402;2024-03-07T10:06:39;58.60;;;23.70;;
15958;SDS011;8078;47.822;9.402;2024-03-07T10:09:06;48.90;;;22.60;;
15958;SDS011;8078;47.822;9.402;2024-03-07T10:11:33;50.50;;;23.13;;
15958;SDS011;8078;47.822;9.402;2024-03-07T10:13:59;46.57;;;20.60;;
15958;SDS011;8078;47.822;9.402;2024-03-07T10:16:25;43.30;;;21.10;;
15958;SDS011;8078;47.822;9.402;2024-03-07T10:18:50;41.80;;;20.00;;
15958;SDS011;8078;47.822;9.402;2024-03-07T10:21:19;44.00;;;20.53;;
15958;SDS011;8078;47.822;9.402;2024-03-07T10:23:45;41.13;;;20.67;;
15958;SDS011;8078;47.822;9.402;2024-03-07T10:26:14;42.90;;;20.27;;
15958;SDS011;8078;47.822;9.402;2024-03-07T10:28:40;40.50;;;20.30;;
15958;SDS011;8078;47.822;9.402;2024-03-07T10:31:06;40.90;;;20.10;;
15958;SDS011;8078;47.822;9.402;2024-03-07T10:33:39;47.20;;;21.70;;
15958;SDS011;8078;47.822;9.402;2024-03-07T10:36:05;42.60;;;20.40;;
15958;SDS011;8078;47.822;9.402;2024-03-07T10:38:35;40.63;;;20.60;;
15958;SDS011;8078;47.822;9.402;2024-03-07T10:41:04;44.97;;;20.40;;
15958;SDS011;8078;47.822;9.402;2024-03-07T10:43:33;42.20;;;20.30;;
15958;SDS011;8078;47.822;9.402;2024-03-07T10:46:04;36.30;;;18.87;;
15958;SDS011;8078;47.822;9.402;2024-03-07T10:48:34;42.13;;;19.97;;
15958;SDS011;8078;47.822;9.402;2024-03-07T10:51:13;39.10;;;20.27;;
15958;SDS011;8078;47.822;9.402;2024-03-07T10:57:21;40.60;;;19.57;;
15958;SDS011;8078;47.822;9.402;2024-03-07T11:00:07;42.67;;;20.77;;
15958;SDS011;8078;47.822;9.402;2024-03-07T11:02:53;37.83;;;19.07;;
15958;SDS011;8078;47.822;9.402;2024-03-07T11:05:20;38.20;;;19.23;;
15958;SDS011;8078;47.822;9.402;2024-03-07T11:07:49;39.80;;;20.20;;
15958;SDS011;8078;47.822;9.402;2024-03-07T11:10:19;39.83;;;20.17;;
15958;SDS011;8078;47.822;9.402;2024-03-07T11:12:45;38.70;;;20.10;;
15958;SDS011;8078;47.822;9.402;2024-03-07T11:15:12;41.87;;;20.43;;
15958;SDS011;8078;47.822;9.402;2024-03-07T11:17:47;37.90;;;19.73;;
15958;SDS011;8078;47.822;9.402;2024-03-07T11:20:26;41.50;;;20.57;;
15958;SDS011;8078;47.822;9.402;2024-03-07T11:22:59;40.53;;;20.40;;
15958;SDS011;8078;47.822;9.402;2024-03-07T11:25:26;39.30;;;20.33;;
15958;SDS011;8078;47.822;9.402;2024-03-07T11:27:56;39.20;;;19.57;;
15958;SDS011;8078;47.822;9.402;2024-03-07T11:30:26;39.90;;;20.30;;
15958;SDS011;8078;47.822;9.402;2024-03-07T11:32:52;40.50;;;19.37;;
15958;SDS011;8078;47.822;9.402;2024-03-07T11:35:31;40.10;;;20.30;;
15958;SDS011;8078;47.822;9.402;2024-03-07T11:38:00;39.47;;;21.70;;
15958;SDS011;8078;47.822;9.402;2024-03-07T11:42:55;38.70;;;21.00;;
15958;SDS011;8078;47.822;9.402;2024-03-07T11:45:25;39.20;;;21.63;;
15958;SDS011;8078;47.822;9.402;2024-03-07T11:48:00;41.60;;;21.20;;
15958;SDS011;8078;47.822;9.402;2024-03-07T11:50:31;40.77;;;22.20;;
15958;SDS011;8078;47.822;9.402;2024-03-07T11:53:00;41.87;;;22.20;;
15958;SDS011;8078;47.822;9.402;2024-03-07T11:55:26;40.17;;;21.10;;
15958;SDS011;8078;47.822;9.402;2024-03-07T11:57:58;39.50;;;21.10;;
15958;SDS011;8078;47.822;9.402;2024-03-07T12:00:24;40.80;;;21.87;;
15958;SDS011;8078;47.822;9.402;2024-03-07T12:02:56;39.37;;;20.43;;
15958;SDS011;8078;47.822;9.402;2024-03-07T12:05:21;38.53;;;20.23;;
15958;SDS011;8078;47.822;9.402;2024-03-07T12:07:47;39.30;;;20.80;;
15958;SDS011;8078;47.822;9.402;2024-03-07T12:10:14;38.97;;;21.07;;
15958;SDS011;8078;47.822;9.402;2024-03-07T12:12:40;38.67;;;20.17;;
15958;SDS011;8078;47.822;9.402;2024-03-07T12:15:08;38.17;;;21.93;;
15958;SDS011;8078;47.822;9.402;2024-03-07T12:17:41;37.33;;;20.93;;
15958;SDS011;8078;47.822;9.402;2024-03-07T12:20:08;42.10;;;22.00;;
15958;SDS011;8078;47.822;9.402;2024-03-07T12:22:49;42.40;;;21.53;;
15958;SDS011;8078;47.822;9.402;2024-03-07T12:25:18;41.87;;;21.93;;
15958;SDS011;8078;47.822;9.402;2024-03-07T12:27:47;44.37;;;22.47;;
15958;SDS011;8078;47.822;9.402;2024-03-07T12:30:25;45.07;;;22.40;;
15958;SDS011;8078;47.822;9.402;2024-03-07T12:32:52;49.37;;;24.60;;
15958;SDS011;8078;47.822;9.402;2024-03-07T12:35:18;48.03;;;23.30;;
15958;SDS011;8078;47.822;9.402;2024-03-07T12:37:44;41.03;;;22.43;;
15958;SDS011;8078;47.822;9.402;2024-03-07T12:40:11;45.10;;;23.07;;
15958;SDS011;8078;47.822;9.402;2024-03-07T12:42:45;41.87;;;21.93;;
15958;SDS011;8078;47.822;9.402;2024-03-07T12:45:11;45.57;;;22.77;;
15958;SDS011;8078;47.822;9.402;2024-03-07T12:47:42;46.67;;;22.53;;
15958;SDS011;8078;47.822;9.402;2024-03-07T12:50:08;45.73;;;24.60;;
15958;SDS011;8078;47.822;9.402;2024-03-07T12:52:35;50.77;;;23.87;;
15958;SDS011;8078;47.822;9.402;2024-03-07T12:55:01;48.43;;;23.73;;
15958;SDS011;8078;47.822;9.402;2024-03-07T12:57:26;50.33;;;24.97;;
15958;SDS011;8078;47.822;9.402;2024-03-07T12:59:52;50.10;;;24.60;;
15958;SDS011;8078;47.822;9.402;2024-03-07T13:02:18;53.90;;;24.03;;
15958;SDS011;8078;47.822;9.402;2024-03-07T13:04:44;49.30;;;24.47;;
15958;SDS011;8078;47.822;9.402;2024-03-07T13:07:10;50.77;;;24.47;;
15958;SDS011;8078;47.822;9.402;2024-03-07T13:09:35;52.37;;;25.37;;
15958;SDS011;8078;47.822;9.402;2024-03-07T13:12:03;45.23;;;24.13;;
15958;SDS011;8078;47.822;9.402;2024-03-07T13:14:32;48.60;;;23.93;;
15958;SDS011;8078;47.822;9.402;2024-03-07T13:17:02;49.97;;;23.47;;
15958;SDS011;8078;47.822;9.402;2024-03-07T13:19:29;50.97;;;24.57;;
15958;SDS011;8078;47.822;9.402;2024-03-07T13:21:58;50.10;;;25.47;;
15958;SDS011;8078;47.822;9.402;2024-03-07T13:24:24;46.87;;;23.80;;
15958;SDS011;8078;47.822;9.402;2024-03-07T13:26:51;47.13;;;25.30;;
15958;SDS011;8078;47.822;9.402;2024-03-07T13:29:18;44.80;;;23.57;;
15958;SDS011;8078;47.822;9.402;2024-03-07T13:31:49;51.37;;;24.10;;
15958;SDS011;8078;47.822;9.402;2024-03-07T13:34:16;45.10;;;24.27;;
15958;SDS011;8078;47.822;9.402;2024-03-07T13:36:42;57.43;;;25.67;;
15958;SDS011;8078;47.822;9.402;2024-03-07T13:39:09;48.23;;;23.53;;
15958;SDS011;8078;47.822;9.402;2024-03-07T13:41:44;41.97;;;22.50;;
15958;SDS011;8078;47.822;9.402;2024-03-07T13:44:13;46.83;;;23.27;;
15958;SDS011;8078;47.822;9.402;2024-03-07T13:46:39;53.07;;;24.17;;
15958;SDS011;8078;47.822;9.402;2024-03-07T13:49:05;50.27;;;23.43;;
15958;SDS011;8078;47.822;9.402;2024-03-07T13:51:37;47.30;;;25.03;;
15958;SDS011;8078;47.822;9.402;2024-03-07T13:54:18;50.40;;;25.30;;
15958;SDS011;8078;47.822;9.402;2024-03-07T14:00:18;48.10;;;24.80;;
15958;SDS011;8078;47.822;9.402;2024-03-07T14:03:16;54.30;;;25.97;;
15958;SDS011;8078;47.822;9.402;2024-03-07T14:06:05;57.17;;;26.80;;
15958;SDS011;8078;47.822;9.402;2024-03-07T14:12:04;61.87;;;26.90;;
15958;SDS011;8078;47.822;9.402;2024-03-07T14:32:22;55.00;;;25.17;;
15958;SDS011;8078;47.822;9.402;2024-03-07T14:35:12;53.70;;;26.00;;
15958;SDS011;8078;47.822;9.402;2024-03-07T14:37:49;54.73;;;25.43;;
15958;SDS011;8078;47.822;9.402;2024-03-07T14:40:26;57.97;;;24.73;;
15958;SDS011;8078;47.822;9.402;2024-03-07T14:42:53;56.53;;;26.47;;
15958;SDS011;8078;47.822;9.402;2024-03-07T14:45:29;56.80;;;26.50;;
15958;SDS011;8078;47.822;9.402;2024-03-07T14:48:00;57.37;;;26.57;;
15958;SDS011;8078;47.822;9.402;2024-03-07T14:50:27;55.80;;;25.37;;
15958;SDS011;8078;47.822;9.402;2024-03-07T14:52:54;55.37;;;26.30;;
15958;SDS011;8078;47.822;9.402;2024-03-07T14:55:20;57.53;;;26.07;;
15958;SDS011;8078;47.822;9.402;2024-03-07T14:57:46;53.57;;;26.73;;
15958;SDS011;8078;47.822;9.402;2024-03-07T15:00:12;55.47;;;27.13;;
15958;SDS011;8078;47.822;9.402;2024-03-07T15:02:47;54.50;;;26.27;;